createdAt,value
2017-10-26T00:03:20.947Z,9.40
2017-10-26T00:08:25.574Z,7.13
2017-10-26T00:13:33.192Z,6.73
2017-10-26T00:18:36.764Z,4.83
2017-10-26T00:28:46.442Z,4.23
2017-10-26T00:38:56.722Z,8.87
2017-10-26T00:44:01.287Z,5.43
2017-10-26T00:49:04.849Z,7.73
2017-10-26T00:54:07.665Z,5.53
2017-10-26T01:04:17.582Z,5.97
2017-10-26T01:09:21.734Z,4.47
2017-10-26T01:19:34.204Z,6.57
2017-10-26T01:29:46.294Z,4.63
2017-10-26T01:45:05.026Z,7.53
2017-10-26T02:00:24.390Z,11.33
2017-10-26T02:10:37.781Z,24.07
2017-10-26T02:20:50.393Z,11.50
2017-10-26T02:25:55.189Z,4.03
2017-10-26T02:31:10.434Z,5.00
2017-10-26T02:41:24.441Z,10.20
2017-10-26T03:01:49.771Z,16.20
2017-10-26T03:06:54.654Z,27.53
2017-10-26T03:11:59.101Z,8.37
2017-10-26T03:22:12.642Z,5.83
2017-10-26T03:32:24.040Z,7.90
2017-10-26T03:42:33.794Z,4.30
2017-10-26T03:47:36.893Z,8.23
2017-10-26T03:52:43.074Z,8.27
2017-10-26T03:57:46.055Z,12.40
2017-10-26T04:07:57.027Z,8.23
2017-10-26T04:13:00.080Z,8.83
2017-10-26T04:18:04.781Z,6.00
2017-10-26T04:23:09.026Z,9.33
2017-10-26T04:28:15.394Z,10.00
2017-10-26T04:33:21.980Z,93.73
2017-10-26T04:44:03.146Z,40.90
2017-10-26T04:49:05.738Z,47.57
2017-10-26T04:54:08.462Z,20.40
2017-10-26T04:59:11.065Z,17.57
2017-10-26T05:04:13.668Z,23.20
2017-10-26T05:09:16.416Z,25.50
2017-10-26T05:14:19.036Z,12.77
2017-10-26T05:19:21.682Z,17.67
2017-10-26T05:24:24.307Z,20.20
2017-10-26T05:29:27.680Z,33.37
2017-10-26T05:34:30.302Z,11.77
2017-10-26T05:39:32.895Z,13.70
2017-10-26T05:44:35.604Z,15.60
2017-10-26T05:49:38.177Z,26.37
2017-10-26T05:54:40.735Z,13.53
2017-10-26T05:59:43.295Z,14.50
2017-10-26T06:04:45.939Z,15.80
2017-10-26T06:09:48.510Z,18.17
2017-10-26T06:14:51.059Z,12.20
2017-10-26T06:19:53.641Z,19.30
2017-10-26T06:24:56.220Z,18.93
2017-10-26T06:29:58.793Z,20.27
2017-10-26T06:35:01.428Z,21.57
2017-10-26T06:40:03.996Z,23.47
2017-10-26T06:45:06.570Z,25.33
2017-10-26T06:50:09.240Z,25.07
2017-10-26T06:55:12.597Z,33.90
2017-10-26T07:00:15.164Z,23.37
2017-10-26T07:05:18.603Z,29.70
2017-10-26T07:10:21.225Z,26.33
2017-10-26T07:15:23.852Z,26.03
2017-10-26T07:20:26.447Z,25.67
2017-10-26T07:25:29.041Z,24.33
2017-10-26T07:30:31.625Z,28.70
2017-10-26T07:35:34.243Z,28.47
2017-10-26T07:40:36.847Z,28.40
2017-10-26T07:45:40.168Z,26.13
2017-10-26T07:50:43.912Z,29.40
2017-10-26T08:00:54.510Z,33.07
2017-10-26T08:05:59.356Z,28.47
2017-10-26T08:11:02.184Z,30.80
2017-10-26T08:16:07.519Z,37.57
2017-10-26T08:21:11.895Z,36.10
2017-10-26T08:26:14.550Z,29.40
2017-10-26T08:31:17.903Z,41.27
2017-10-26T08:36:22.245Z,48.60
2017-10-26T08:41:26.943Z,39.20
2017-10-26T08:46:29.877Z,41.50
2017-10-26T08:51:34.168Z,38.80
2017-10-26T08:56:36.909Z,36.63
2017-10-26T09:01:40.410Z,36.53
2017-10-26T09:06:43.925Z,37.17
2017-10-26T09:11:47.416Z,38.23
2017-10-26T09:16:50.374Z,32.40
2017-10-26T09:21:56.641Z,32.10
2017-10-26T09:27:00.089Z,36.20
2017-10-26T09:32:06.215Z,42.00
2017-10-26T09:37:09.487Z,50.17
2017-10-26T09:42:12.510Z,39.17
2017-10-26T09:47:16.902Z,38.97
2017-10-26T09:52:19.682Z,41.63
2017-10-26T09:57:23.081Z,43.60
2017-10-26T10:07:34.117Z,44.37
2017-10-26T10:12:38.386Z,49.50
2017-10-26T10:22:51.487Z,52.13
2017-10-26T10:27:54.844Z,48.47
2017-10-26T10:38:04.716Z,57.17
2017-10-26T10:53:27.150Z,55.20
2017-10-26T10:58:30.100Z,51.10
2017-10-26T11:08:40.591Z,62.83
2017-10-26T11:13:44.312Z,73.17
2017-10-26T11:18:47.894Z,71.63
2017-10-26T11:23:53.165Z,72.77
2017-10-26T11:28:56.571Z,64.50
2017-10-26T11:39:07.840Z,74.13
2017-10-26T11:44:12.160Z,72.40
2017-10-26T11:49:15.562Z,75.83
2017-10-26T11:54:19.075Z,80.40
2017-10-26T11:59:22.259Z,78.70
2017-10-26T12:04:25.732Z,70.60
2017-10-26T12:09:28.925Z,86.47
2017-10-26T12:14:31.581Z,79.77
2017-10-26T12:19:34.204Z,93.90
2017-10-26T12:29:46.204Z,89.20
2017-10-26T12:39:55.973Z,92.47
2017-10-26T12:44:58.672Z,80.87
2017-10-26T12:50:01.330Z,73.53
2017-10-26T12:55:04.733Z,72.27
2017-10-26T13:00:08.270Z,79.40
2017-10-26T13:05:14.448Z,106.20
2017-10-26T13:10:17.027Z,79.63
2017-10-26T13:15:23.080Z,81.93
2017-10-26T13:20:29.814Z,67.43
2017-10-26T13:25:33.287Z,75.00
2017-10-26T13:30:39.398Z,79.20
2017-10-26T13:35:42.173Z,58.20
2017-10-26T13:40:45.035Z,63.77
2017-10-26T13:45:48.421Z,56.83
2017-10-26T13:50:52.692Z,64.67
2017-10-26T13:55:56.985Z,60.07
2017-10-26T14:00:59.824Z,61.83
2017-10-26T14:06:02.724Z,75.03
2017-10-26T14:11:05.352Z,61.27
2017-10-26T14:16:12.234Z,57.20
2017-10-26T14:21:15.382Z,69.80
2017-10-26T14:26:19.854Z,59.20
2017-10-26T14:31:22.610Z,55.67
2017-10-26T14:36:25.461Z,60.80
2017-10-26T14:41:28.309Z,63.73
2017-10-26T14:46:32.561Z,67.93
2017-10-26T14:51:35.991Z,58.87
2017-10-26T14:56:39.148Z,64.83
2017-10-26T15:01:42.699Z,56.73
2017-10-26T15:06:45.467Z,53.47
2017-10-26T15:11:48.315Z,55.43
2017-10-26T15:16:51.076Z,57.07
2017-10-26T15:21:54.121Z,60.30
2017-10-26T15:26:57.543Z,62.73
2017-10-26T15:37:08.617Z,63.07
2017-10-26T15:42:16.549Z,64.33
2017-10-26T15:52:30.289Z,62.53
2017-10-26T16:02:44.076Z,74.03
2017-10-26T16:18:33.714Z,98.27
2017-10-26T16:23:37.219Z,67.60
2017-10-26T16:38:56.443Z,72.17
2017-10-26T16:44:02.873Z,78.07
2017-10-26T16:59:23.289Z,57.23
2017-10-26T17:04:26.875Z,61.20
2017-10-26T17:14:37.501Z,50.20
2017-10-26T17:19:40.418Z,61.40
2017-10-26T17:24:44.105Z,48.83
2017-10-26T17:29:50.615Z,59.60
2017-10-26T17:34:53.665Z,48.97
2017-10-26T17:39:58.096Z,59.90
2017-10-26T17:45:04.687Z,53.23
2017-10-26T17:50:11.187Z,53.70
2017-10-26T18:00:22.486Z,54.87
2017-10-26T18:05:26.471Z,61.50
2017-10-26T18:10:32.292Z,59.70
2017-10-26T18:15:36.822Z,64.27
2017-10-26T18:20:44.963Z,63.77
2017-10-26T18:25:49.119Z,73.77
2017-10-26T18:41:08.193Z,69.97
2017-10-26T18:46:11.717Z,72.43
2017-10-26T18:56:23.377Z,73.17
2017-10-26T19:01:27.120Z,58.43
2017-10-26T19:06:30.166Z,55.60
2017-10-26T19:11:33.227Z,68.23
2017-10-26T19:16:36.230Z,68.57
2017-10-26T19:21:39.330Z,65.27
2017-10-26T19:26:43.783Z,56.37
2017-10-26T19:31:48.319Z,55.77
2017-10-26T19:36:51.522Z,48.20
2017-10-26T19:41:54.498Z,48.17
2017-10-26T19:46:57.414Z,51.03
2017-10-26T19:52:01.682Z,41.17
2017-10-26T19:57:05.789Z,49.30
2017-10-26T20:02:09.681Z,46.20
2017-10-26T20:07:12.948Z,37.33
2017-10-26T20:12:16.421Z,47.47
2017-10-26T20:17:19.294Z,49.60
2017-10-26T20:22:22.648Z,42.30
2017-10-26T20:27:25.644Z,39.83
2017-10-26T20:32:28.879Z,47.13
2017-10-26T20:37:34.393Z,67.13
2017-10-26T20:42:38.850Z,37.87
2017-10-26T20:47:42.140Z,47.03
2017-10-26T20:52:51.533Z,42.87
2017-10-26T20:58:00.253Z,38.83
2017-10-26T21:03:10.485Z,34.77
2017-10-26T21:08:13.364Z,45.87
2017-10-26T21:13:26.420Z,45.80
2017-10-26T21:18:29.362Z,48.67
2017-10-26T21:23:32.911Z,47.17
2017-10-26T21:28:36.583Z,51.63
2017-10-26T21:33:44.981Z,42.70
2017-10-26T21:38:48.099Z,44.70
2017-10-26T21:43:55.245Z,59.50
2017-10-26T21:48:58.699Z,54.67
2017-10-26T21:54:02.883Z,37.40
2017-10-26T22:04:16.874Z,45.30
2017-10-26T22:09:20.691Z,45.53
2017-10-26T22:19:30.712Z,36.87
2017-10-26T22:24:34.463Z,33.17
2017-10-26T22:29:38.166Z,39.70
2017-10-26T22:34:41.945Z,34.67
2017-10-26T22:39:44.971Z,33.90
2017-10-26T22:44:48.534Z,39.70
2017-10-26T22:49:52.997Z,31.43
2017-10-26T22:54:58.178Z,36.33
2017-10-26T23:00:01.822Z,28.60
2017-10-26T23:05:05.876Z,29.73
2017-10-26T23:10:09.809Z,30.70
2017-10-26T23:15:13.210Z,34.50
2017-10-26T23:20:16.219Z,35.30
2017-10-26T23:25:22.927Z,23.57
2017-10-26T23:30:28.347Z,18.63
2017-10-26T23:35:32.831Z,19.70
2017-10-26T23:40:37.300Z,20.90
2017-10-26T23:45:42.179Z,17.87
2017-10-26T23:50:47.283Z,16.50
2017-10-26T23:55:50.476Z,42.37
